Time;durP1;ratioP1;P1;durP2;ratioP2;P2;SDS_P1;SDS_P2;PMS_P1;PMS_P2;Temp;Humidity;BMP_temperature;BMP_pressure;BME280_temperature;BME280_humidity;BME280_pressure;Samples;Min_cycle;Max_cycle;Signal;HPM_P1;HPM_P2
2021/08/22 00:00:29;;;;;;;;;;;18.30;99.90;;;;;;1962721;72;20167;-69
2021/08/22 00:02:56;;;;;;;;;;;18.30;99.90;;;;;;1963027;73;20147;-69
2021/08/22 00:05:23;;;;;;;;;;;18.20;99.90;;;;;;1963296;73;20424;-69
2021/08/22 00:07:50;;;;;;;;;;;18.20;99.90;;;;;;1962960;73;20197;-69
2021/08/22 00:10:17;;;;;;;;;;;18.10;99.90;;;;;;1962326;72;20566;-69
2021/08/22 00:12:44;;;;;;;;;;;18.20;99.90;;;;;;1962933;72;20147;-70
2021/08/22 00:15:11;;;;;;;;;;;18.30;99.90;;;;;;1962602;73;20131;-71
2021/08/22 00:17:37;;;;;;;;;;;18.20;99.90;;;;;;1962540;73;20166;-71
2021/08/22 00:20:05;;;;;;;;;;;18.30;99.90;;;;;;1962773;73;20104;-71
2021/08/22 00:22:32;;;;;;;;;;;18.20;99.90;;;;;;1962591;72;20182;-71
2021/08/22 00:24:58;;;;;;;;;;;18.20;99.90;;;;;;1962627;73;20111;-69
2021/08/22 00:27:25;;;;;;;;;;;18.20;99.90;;;;;;1962784;73;20163;-70
2021/08/22 00:29:52;;;;;;;;;;;18.20;99.90;;;;;;1962940;72;20166;-70
2021/08/22 00:32:19;;;;;;;;;;;18.20;99.90;;;;;;1962841;72;20404;-70
2021/08/22 00:34:47;;;;;;;;;;;18.20;99.90;;;;;;1962782;73;20255;-70
2021/08/22 00:37:13;;;;;;;;;;;18.20;99.90;;;;;;1963048;73;20162;-70
2021/08/22 00:39:40;;;;;;;;;;;18.20;99.90;;;;;;1962872;73;20504;-70
2021/08/22 00:42:07;;;;;;;;;;;18.20;99.90;;;;;;1962557;72;20201;-70
2021/08/22 00:44:35;;;;;;;;;;;18.20;99.90;;;;;;1962903;73;20236;-70
2021/08/22 00:47:01;;;;;;;;;;;18.20;99.90;;;;;;1963042;71;20108;-70
2021/08/22 00:49:30;;;;;;;;;;;18.20;99.90;;;;;;1963044;73;20417;-70
2021/08/22 00:51:57;;;;;;;;;;;18.20;99.90;;;;;;1960728;72;20170;-70
2021/08/22 00:54:24;;;;;;;;;;;18.20;99.90;;;;;;1962993;73;20143;-70
2021/08/22 00:56:54;;;;;;;;;;;18.20;99.90;;;;;;1962910;73;20448;-70
2021/08/22 00:59:25;;;;;;;;;;;18.30;99.90;;;;;;1962835;73;20210;-69
2021/08/22 01:01:51;;;;;;;;;;;18.20;99.90;;;;;;1961081;72;20469;-69
2021/08/22 01:04:22;;;;;;;;;;;18.20;99.90;;;;;;1962774;73;20402;-69
2021/08/22 01:07:02;;;;;;;;;;;18.30;99.90;;;;;;1962739;73;20174;-69
2021/08/22 01:09:33;;;;;;;;;;;18.30;99.90;;;;;;1962839;73;20170;-69
2021/08/22 01:12:01;;;;;;;;;;;18.30;99.90;;;;;;1962643;72;20415;-70
2021/08/22 01:14:29;;;;;;;;;;;18.20;99.90;;;;;;1962743;73;20104;-70
2021/08/22 01:16:57;;;;;;;;;;;18.20;99.90;;;;;;1962863;73;20420;-70
2021/08/22 01:19:25;;;;;;;;;;;18.20;99.90;;;;;;1963260;73;20389;-70
2021/08/22 01:21:53;;;;;;;;;;;18.20;99.90;;;;;;1959987;72;20160;-70
2021/08/22 01:24:21;;;;;;;;;;;18.30;99.90;;;;;;1963256;73;20162;-70
2021/08/22 01:26:49;;;;;;;;;;;18.30;99.90;;;;;;1963084;73;20162;-70
2021/08/22 01:29:17;;;;;;;;;;;18.30;99.90;;;;;;1963441;73;20153;-70
2021/08/22 01:31:45;;;;;;;;;;;18.20;99.90;;;;;;1963100;72;20116;-69
2021/08/22 01:34:13;;;;;;;;;;;18.20;99.90;;;;;;1963308;73;20158;-69
2021/08/22 01:36:40;;;;;;;;;;;18.20;99.90;;;;;;1963432;73;20174;-69
2021/08/22 01:39:08;;;;;;;;;;;18.20;99.90;;;;;;1963217;73;20119;-69
2021/08/22 01:41:35;;;;;;;;;;;18.20;99.90;;;;;;1962894;72;20103;-69
2021/08/22 01:44:02;;;;;;;;;;;18.10;99.90;;;;;;1963102;73;20167;-69
2021/08/22 01:46:31;;;;;;;;;;;18.20;99.90;;;;;;1963353;73;20158;-69
2021/08/22 01:48:58;;;;;;;;;;;18.20;99.90;;;;;;1963417;73;20285;-69
2021/08/22 01:51:26;;;;;;;;;;;18.20;99.90;;;;;;1963059;72;20216;-69
2021/08/22 01:53:53;;;;;;;;;;;18.20;99.90;;;;;;1960847;73;20154;-69
2021/08/22 01:56:20;;;;;;;;;;;18.20;99.90;;;;;;1963394;73;20170;-69
2021/08/22 01:58:47;;;;;;;;;;;18.20;99.90;;;;;;1963234;73;20156;-69
2021/08/22 02:01:14;;;;;;;;;;;18.20;99.90;;;;;;1963008;72;20166;-69
2021/08/22 02:03:45;;;;;;;;;;;18.20;99.90;;;;;;1963230;73;20170;-69
2021/08/22 02:06:16;;;;;;;;;;;18.20;99.90;;;;;;1963106;73;20119;-69
2021/08/22 02:08:43;;;;;;;;;;;18.10;99.90;;;;;;1962837;73;20174;-69
2021/08/22 02:11:11;;;;;;;;;;;18.10;99.90;;;;;;1963016;72;20529;-69
2021/08/22 02:13:39;;;;;;;;;;;18.10;99.90;;;;;;1963307;73;20167;-69
2021/08/22 02:16:07;;;;;;;;;;;18.10;99.90;;;;;;1963297;73;20143;-69
2021/08/22 02:18:36;;;;;;;;;;;18.00;99.90;;;;;;1963263;73;20170;-69
2021/08/22 02:21:04;;;;;;;;;;;18.00;99.90;;;;;;1963144;72;20170;-69
2021/08/22 02:23:31;;;;;;;;;;;18.00;99.90;;;;;;1963226;73;20123;-69
2021/08/22 02:25:58;;;;;;;;;;;18.00;99.90;;;;;;1963307;73;20159;-69
2021/08/22 02:28:25;;;;;;;;;;;18.00;99.90;;;;;;1963262;73;20147;-69
2021/08/22 02:30:52;;;;;;;;;;;18.00;99.90;;;;;;1963012;72;20193;-69
2021/08/22 02:33:19;;;;;;;;;;;18.00;99.90;;;;;;1963356;73;20116;-69
2021/08/22 02:35:46;;;;;;;;;;;17.90;99.90;;;;;;1963181;73;20432;-69
2021/08/22 02:38:13;;;;;;;;;;;17.90;99.90;;;;;;1963355;73;20393;-69
2021/08/22 02:40:39;;;;;;;;;;;17.90;99.90;;;;;;1962941;72;20214;-70
2021/08/22 02:43:06;;;;;;;;;;;17.90;99.90;;;;;;1963309;73;20482;-70
2021/08/22 02:45:33;;;;;;;;;;;17.90;99.90;;;;;;1963353;73;20143;-69
2021/08/22 02:48:00;;;;;;;;;;;17.80;99.90;;;;;;1963415;73;20171;-70
2021/08/22 02:50:31;;;;;;;;;;;17.80;99.90;;;;;;1963031;72;20158;-70
2021/08/22 02:52:57;;;;;;;;;;;17.80;99.90;;;;;;1963332;71;20347;-70
2021/08/22 02:55:24;;;;;;;;;;;17.80;99.90;;;;;;1963280;73;20162;-70
2021/08/22 02:57:51;;;;;;;;;;;17.80;99.90;;;;;;1963331;73;20213;-70
2021/08/22 03:00:18;;;;;;;;;;;17.70;99.90;;;;;;1963098;72;20201;-70
2021/08/22 03:02:45;;;;;;;;;;;17.70;99.90;;;;;;1963263;73;20123;-70
2021/08/22 03:05:12;;;;;;;;;;;17.70;99.90;;;;;;1963291;73;20119;-71
2021/08/22 03:07:38;;;;;;;;;;;17.70;99.90;;;;;;1963159;73;20170;-70
2021/08/22 03:10:06;;;;;;;;;;;17.70;99.90;;;;;;1963425;73;20108;-70
2021/08/22 03:12:32;;;;;;;;;;;17.70;99.90;;;;;;1963063;72;20508;-70
2021/08/22 03:14:59;;;;;;;;;;;17.70;99.90;;;;;;1963547;73;20177;-70
2021/08/22 03:17:26;;;;;;;;;;;17.70;99.90;;;;;;1963347;73;20174;-70
2021/08/22 03:19:53;;;;;;;;;;;17.70;99.90;;;;;;1963343;73;20582;-70
2021/08/22 03:22:22;;;;;;;;;;;17.60;99.90;;;;;;1963020;72;20520;-70
2021/08/22 03:24:49;;;;;;;;;;;17.60;99.90;;;;;;1963377;73;20163;-70
2021/08/22 03:27:15;;;;;;;;;;;17.70;99.90;;;;;;1963304;73;20111;-70
2021/08/22 03:29:42;;;;;;;;;;;17.60;99.90;;;;;;1963339;72;20124;-70
2021/08/22 03:32:09;;;;;;;;;;;17.60;99.90;;;;;;1962992;72;20217;-70
2021/08/22 03:34:36;;;;;;;;;;;17.70;99.90;;;;;;1963262;73;20111;-70
2021/08/22 03:37:03;;;;;;;;;;;17.60;99.90;;;;;;1963184;73;20208;-70
2021/08/22 03:39:29;;;;;;;;;;;17.60;99.90;;;;;;1963248;73;20170;-70
2021/08/22 03:41:56;;;;;;;;;;;17.70;99.90;;;;;;1963030;72;20130;-70
2021/08/22 03:44:24;;;;;;;;;;;17.60;99.90;;;;;;1963300;73;20174;-70
2021/08/22 03:46:50;;;;;;;;;;;17.60;99.90;;;;;;1963173;73;20251;-70
2021/08/22 03:49:17;;;;;;;;;;;17.60;99.90;;;;;;1962962;73;20178;-70
2021/08/22 03:51:44;;;;;;;;;;;17.70;99.90;;;;;;1962557;72;20182;-70
2021/08/22 03:54:11;;;;;;;;;;;17.60;99.90;;;;;;1962884;71;20115;-70
2021/08/22 03:56:38;;;;;;;;;;;17.60;99.90;;;;;;1962924;73;20151;-70
2021/08/22 03:59:07;;;;;;;;;;;17.50;99.90;;;;;;1963324;73;20159;-70
2021/08/22 04:01:36;;;;;;;;;;;17.50;99.90;;;;;;1962874;72;20463;-70
2021/08/22 04:04:04;;;;;;;;;;;17.60;99.90;;;;;;1961338;73;20100;-70
2021/08/22 04:06:31;;;;;;;;;;;17.60;99.90;;;;;;1963257;73;20123;-70
2021/08/22 04:09:00;;;;;;;;;;;17.60;99.90;;;;;;1963339;73;20170;-70
2021/08/22 04:11:27;;;;;;;;;;;17.70;99.90;;;;;;1962649;72;20174;-70
2021/08/22 04:13:54;;;;;;;;;;;17.60;99.90;;;;;;1963199;73;20143;-70
2021/08/22 04:16:21;;;;;;;;;;;17.60;99.90;;;;;;1963320;73;20123;-70
2021/08/22 04:18:48;;;;;;;;;;;17.60;99.90;;;;;;1963258;73;20220;-70
2021/08/22 04:21:15;;;;;;;;;;;17.50;99.90;;;;;;1963057;72;20201;-70
2021/08/22 04:23:42;;;;;;;;;;;17.60;99.90;;;;;;1963244;73;20154;-70
2021/08/22 04:26:09;;;;;;;;;;;17.60;99.90;;;;;;1963320;73;20151;-70
2021/08/22 04:28:36;;;;;;;;;;;17.60;99.90;;;;;;1963313;73;20120;-70
2021/08/22 04:31:03;;;;;;;;;;;17.60;99.90;;;;;;1963048;72;20167;-70
2021/08/22 04:33:29;;;;;;;;;;;17.50;99.90;;;;;;1963288;73;20149;-70
2021/08/22 04:35:56;;;;;;;;;;;17.60;99.90;;;;;;1963342;73;20162;-70
2021/08/22 04:38:23;;;;;;;;;;;17.60;99.90;;;;;;1963221;73;20182;-70
2021/08/22 04:40:50;;;;;;;;;;;17.50;99.90;;;;;;1962856;72;20115;-70
2021/08/22 04:43:17;;;;;;;;;;;17.50;99.90;;;;;;1963269;73;20178;-70
2021/08/22 04:45:43;;;;;;;;;;;17.50;99.90;;;;;;1963290;73;20170;-70
2021/08/22 04:48:10;;;;;;;;;;;17.50;99.90;;;;;;1963234;73;20135;-70
2021/08/22 04:50:37;;;;;;;;;;;17.60;99.90;;;;;;1963023;72;20497;-70
2021/08/22 04:53:04;;;;;;;;;;;17.60;99.90;;;;;;1963256;73;20405;-70
2021/08/22 04:55:31;;;;;;;;;;;17.50;99.90;;;;;;1963173;73;20108;-70
2021/08/22 04:57:57;;;;;;;;;;;17.60;99.90;;;;;;1963374;73;20459;-70
2021/08/22 05:00:24;;;;;;;;;;;17.60;99.90;;;;;;1962926;72;20127;-70
2021/08/22 05:02:51;;;;;;;;;;;17.60;99.90;;;;;;1963046;73;20167;-70
2021/08/22 05:05:18;;;;;;;;;;;17.60;99.90;;;;;;1963323;73;20201;-70
2021/08/22 05:07:45;;;;;;;;;;;17.50;99.90;;;;;;1963340;73;20213;-70
2021/08/22 05:10:11;;;;;;;;;;;17.50;99.90;;;;;;1963072;72;20225;-70
2021/08/22 05:12:38;;;;;;;;;;;17.50;99.90;;;;;;1963088;73;20159;-70
2021/08/22 05:15:09;;;;;;;;;;;17.50;99.90;;;;;;1963238;73;20151;-70
2021/08/22 05:17:36;;;;;;;;;;;17.40;99.90;;;;;;1963151;73;20146;-70
2021/08/22 05:20:02;;;;;;;;;;;17.40;99.90;;;;;;1963292;73;20205;-70
2021/08/22 05:22:29;;;;;;;;;;;17.40;99.90;;;;;;1962859;72;20150;-70
2021/08/22 05:24:56;;;;;;;;;;;17.40;99.90;;;;;;1963189;71;20205;-70
2021/08/22 05:27:23;;;;;;;;;;;17.40;99.90;;;;;;1963302;73;20167;-70
2021/08/22 05:29:50;;;;;;;;;;;17.40;99.90;;;;;;1963196;73;20194;-70
2021/08/22 05:32:16;;;;;;;;;;;17.30;99.90;;;;;;1962856;72;20212;-70
2021/08/22 05:34:43;;;;;;;;;;;17.30;99.90;;;;;;1963278;73;20145;-70
2021/08/22 05:37:10;;;;;;;;;;;17.30;99.90;;;;;;1963141;72;20155;-70
2021/08/22 05:39:37;;;;;;;;;;;17.40;99.90;;;;;;1963375;73;20200;-70
2021/08/22 05:42:04;;;;;;;;;;;17.40;99.90;;;;;;1962872;72;20123;-70
2021/08/22 05:44:31;;;;;;;;;;;17.50;99.90;;;;;;1963230;73;20163;-69
2021/08/22 05:46:58;;;;;;;;;;;17.40;99.90;;;;;;1963277;73;20127;-69
2021/08/22 05:49:24;;;;;;;;;;;17.40;99.90;;;;;;1963232;73;20147;-69
2021/08/22 05:51:51;;;;;;;;;;;17.40;99.90;;;;;;1963129;72;20163;-69
2021/08/22 05:54:18;;;;;;;;;;;17.30;99.90;;;;;;1963230;73;20108;-69
2021/08/22 05:56:45;;;;;;;;;;;17.30;99.90;;;;;;1963167;73;20167;-69
2021/08/22 05:59:11;;;;;;;;;;;17.40;99.90;;;;;;1963272;73;20179;-69
2021/08/22 06:01:38;;;;;;;;;;;17.30;99.90;;;;;;1962992;72;20146;-69
2021/08/22 06:04:05;;;;;;;;;;;17.20;99.90;;;;;;1963304;73;20182;-69
2021/08/22 06:06:32;;;;;;;;;;;17.20;99.90;;;;;;1963163;73;20166;-69
2021/08/22 06:08:59;;;;;;;;;;;17.20;99.90;;;;;;1963215;73;20159;-69
2021/08/22 06:11:25;;;;;;;;;;;17.20;99.90;;;;;;1963018;72;20193;-69
2021/08/22 06:13:52;;;;;;;;;;;17.30;99.90;;;;;;1963067;73;20511;-69
2021/08/22 06:16:21;;;;;;;;;;;17.20;99.90;;;;;;1963141;73;20153;-69
2021/08/22 06:18:47;;;;;;;;;;;17.30;99.90;;;;;;1963111;73;20189;-69
2021/08/22 06:21:14;;;;;;;;;;;17.30;99.90;;;;;;1963127;72;20159;-69
2021/08/22 06:23:42;;;;;;;;;;;17.30;99.90;;;;;;1963349;73;20112;-69
2021/08/22 06:26:08;;;;;;;;;;;17.30;99.90;;;;;;1963200;73;20156;-69
2021/08/22 06:28:35;;;;;;;;;;;17.30;99.90;;;;;;1963429;73;20201;-69
2021/08/22 06:31:02;;;;;;;;;;;17.30;99.90;;;;;;1963208;72;20170;-69
2021/08/22 06:33:29;;;;;;;;;;;17.20;99.90;;;;;;1963217;73;20158;-69
2021/08/22 06:35:59;;;;;;;;;;;17.20;99.90;;;;;;1963365;73;20170;-69
2021/08/22 06:38:26;;;;;;;;;;;17.20;99.90;;;;;;1963344;73;20189;-69
2021/08/22 06:40:53;;;;;;;;;;;17.20;99.90;;;;;;1962944;72;20449;-70
2021/08/22 06:43:20;;;;;;;;;;;17.20;99.90;;;;;;1963275;73;20433;-69
2021/08/22 06:45:47;;;;;;;;;;;17.20;99.90;;;;;;1963122;72;20163;-69
2021/08/22 06:48:13;;;;;;;;;;;17.10;99.90;;;;;;1963477;73;20408;-69
2021/08/22 06:50:42;;;;;;;;;;;17.10;99.90;;;;;;1963000;72;20178;-70
2021/08/22 06:53:09;;;;;;;;;;;17.10;99.90;;;;;;1961414;73;20436;-70
2021/08/22 06:55:36;;;;;;;;;;;17.10;99.90;;;;;;1963380;73;20170;-69
2021/08/22 06:58:02;;;;;;;;;;;17.10;99.90;;;;;;1963452;73;20141;-69
2021/08/22 07:00:29;;;;;;;;;;;17.20;99.90;;;;;;1963086;72;20452;-70
2021/08/22 07:02:56;;;;;;;;;;;17.20;99.90;;;;;;1963231;73;20123;-69
2021/08/22 07:05:23;;;;;;;;;;;17.20;99.90;;;;;;1963370;73;20510;-69
2021/08/22 07:07:49;;;;;;;;;;;17.20;99.90;;;;;;1963281;73;20197;-69
2021/08/22 07:10:16;;;;;;;;;;;17.20;99.90;;;;;;1963300;72;20388;-70
2021/08/22 07:12:43;;;;;;;;;;;17.20;99.90;;;;;;1963154;73;20204;-69
2021/08/22 07:15:11;;;;;;;;;;;17.20;99.90;;;;;;1963453;71;20155;-69
2021/08/22 07:17:38;;;;;;;;;;;17.10;99.90;;;;;;1963412;73;20173;-70
2021/08/22 07:20:06;;;;;;;;;;;17.20;99.90;;;;;;1962890;73;20174;-70
2021/08/22 07:22:32;;;;;;;;;;;17.30;99.90;;;;;;1962671;72;20119;-70
2021/08/22 07:25:04;;;;;;;;;;;17.20;99.90;;;;;;1963207;73;20400;-70
2021/08/22 07:27:28;;;;;;;;;;;17.20;99.90;;;;;;1962538;73;20166;-69
2021/08/22 07:29:55;;;;;;;;;;;17.30;99.90;;;;;;1963006;73;20119;-69
2021/08/22 07:32:21;;;;;;;;;;;17.30;99.90;;;;;;1962681;72;20275;-69
2021/08/22 07:34:48;;;;;;;;;;;17.20;99.90;;;;;;1963059;73;20221;-69
2021/08/22 07:37:15;;;;;;;;;;;17.20;99.90;;;;;;1962955;73;20174;-69
2021/08/22 07:39:42;;;;;;;;;;;17.30;99.90;;;;;;1963108;73;20159;-69
2021/08/22 07:42:09;;;;;;;;;;;17.30;99.90;;;;;;1962663;72;20178;-69
2021/08/22 07:44:36;;;;;;;;;;;17.30;99.90;;;;;;1962943;73;20170;-68
2021/08/22 07:47:02;;;;;;;;;;;17.30;99.90;;;;;;1963076;73;20193;-69
2021/08/22 07:49:29;;;;;;;;;;;17.30;99.90;;;;;;1963099;73;20123;-69
2021/08/22 07:51:56;;;;;;;;;;;17.30;99.90;;;;;;1962903;72;20161;-69
2021/08/22 07:54:23;;;;;;;;;;;17.30;99.90;;;;;;1963204;71;20155;-69
2021/08/22 07:56:50;;;;;;;;;;;17.40;99.90;;;;;;1963037;73;20149;-69
2021/08/22 07:59:16;;;;;;;;;;;17.30;99.90;;;;;;1963206;73;20157;-69
2021/08/22 08:01:43;;;;;;;;;;;17.40;99.90;;;;;;1962843;72;20159;-69
2021/08/22 08:04:10;;;;;;;;;;;17.30;99.90;;;;;;1963069;73;20123;-69
2021/08/22 08:06:37;;;;;;;;;;;17.30;99.90;;;;;;1962896;73;20175;-70
2021/08/22 08:09:04;;;;;;;;;;;17.30;99.90;;;;;;1963010;73;20178;-69
2021/08/22 08:11:31;;;;;;;;;;;17.30;99.90;;;;;;1962399;72;20221;-69
2021/08/22 08:13:58;;;;;;;;;;;17.40;99.90;;;;;;1962968;73;20100;-69
2021/08/22 08:16:25;;;;;;;;;;;17.40;99.90;;;;;;1963004;73;20163;-70
2021/08/22 08:18:52;;;;;;;;;;;17.40;99.90;;;;;;1962937;73;20179;-69
2021/08/22 08:21:19;;;;;;;;;;;17.30;99.90;;;;;;1962764;72;20124;-70
2021/08/22 08:23:45;;;;;;;;;;;17.30;99.90;;;;;;1963068;73;20190;-69
2021/08/22 08:26:12;;;;;;;;;;;17.30;99.90;;;;;;1963072;73;20119;-69
2021/08/22 08:28:40;;;;;;;;;;;17.30;99.90;;;;;;1962950;73;20516;-69
2021/08/22 08:31:07;;;;;;;;;;;17.30;99.90;;;;;;1943879;72;20388;-70
2021/08/22 08:33:37;;;;;;;;;;;17.30;99.90;;;;;;1840032;76;20478;-70
2021/08/22 08:36:04;;;;;;;;;;;17.30;99.90;;;;;;1847750;76;20158;-70
2021/08/22 08:38:31;;;;;;;;;;;17.30;99.90;;;;;;1847718;77;20153;-71
2021/08/22 08:41:00;;;;;;;;;;;17.30;99.90;;;;;;1854361;76;20187;-69
2021/08/22 08:43:26;;;;;;;;;;;17.30;99.90;;;;;;1887798;76;20488;-70
2021/08/22 08:46:00;;;;;;;;;;;17.30;99.90;;;;;;1888678;76;20148;-70
2021/08/22 08:48:29;;;;;;;;;;;17.30;99.90;;;;;;1888612;76;20178;-70
2021/08/22 08:51:14;;;;;;;;;;;17.30;99.90;;;;;;1888329;75;20140;-70
2021/08/22 08:53:48;;;;;;;;;;;17.30;99.90;;;;;;1888489;76;20176;-70
2021/08/22 08:56:15;;;;;;;;;;;17.30;99.90;;;;;;1877518;76;20462;-71
2021/08/22 08:58:42;;;;;;;;;;;17.30;99.90;;;;;;1888463;76;20253;-70
2021/08/22 09:01:09;;;;;;;;;;;17.40;99.90;;;;;;1888250;75;20200;-71
2021/08/22 09:03:36;;;;;;;;;;;17.40;99.90;;;;;;1888635;76;20184;-71
2021/08/22 09:06:04;;;;;;;;;;;17.30;99.90;;;;;;1888640;76;20219;-70
2021/08/22 09:08:33;;;;;;;;;;;17.30;99.90;;;;;;1887863;76;20223;-70
2021/08/22 09:11:04;;;;;;;;;;;17.30;99.90;;;;;;1888140;75;20145;-71
2021/08/22 09:13:49;;;;;;;;;;;17.30;99.90;;;;;;1851193;76;20207;-71
2021/08/22 09:16:19;;;;;;;;;;;17.40;99.90;;;;;;1888453;76;20188;-70
2021/08/22 09:19:04;;;;;;;;;;;17.40;99.90;;;;;;1886207;76;20247;-70
2021/08/22 09:21:38;;;;;;;;;;;17.30;99.90;;;;;;1888322;75;20202;-70
2021/08/22 09:24:23;;;;;;;;;;;17.40;99.90;;;;;;1888594;76;20190;-70
2021/08/22 09:27:08;;;;;;;;;;;17.40;99.90;;;;;;1888742;76;20192;-70
2021/08/22 09:29:54;;;;;;;;;;;17.40;99.90;;;;;;1888683;76;20140;-71
2021/08/22 09:32:39;;;;;;;;;;;17.40;99.90;;;;;;1885469;75;20846;-70
2021/08/22 09:35:16;;;;;;;;;;;17.40;99.90;;;;;;1888493;76;20231;-70
2021/08/22 09:38:01;;;;;;;;;;;17.40;99.90;;;;;;1888523;76;20360;-68
2021/08/22 09:40:46;;;;;;;;;;;17.50;99.90;;;;;;1888288;76;20188;-70
2021/08/22 09:43:32;;;;;;;;;;;17.50;99.90;;;;;;1888581;76;20418;-70
2021/08/22 09:46:09;;;;;;;;;;;17.50;99.90;;;;;;1888694;76;20498;-70
2021/08/22 09:48:50;;;;;;;;;;;17.50;99.90;;;;;;1888724;76;20222;-69
2021/08/22 09:51:21;;;;;;;;;;;17.50;99.90;;;;;;1884830;75;20234;-69
2021/08/22 09:54:05;;;;;;;;;;;17.50;99.90;;;;;;1884814;76;20164;-69
2021/08/22 09:56:43;;;;;;;;;;;17.50;99.90;;;;;;1888801;75;20200;-69
2021/08/22 09:59:26;;;;;;;;;;;17.50;99.90;;;;;;1885431;76;20133;-68
2021/08/22 10:02:11;;;;;;;;;;;17.50;99.90;;;;;;1887189;75;20195;-69
2021/08/22 10:04:58;;;;;;;;;;;17.50;99.90;;;;;;1888671;76;20152;-68
2021/08/22 10:07:43;;;;;;;;;;;17.60;99.90;;;;;;1888187;76;20199;-71
2021/08/22 10:10:14;;;;;;;;;;;17.60;99.90;;;;;;1888773;76;20136;-71
2021/08/22 10:12:42;;;;;;;;;;;17.60;99.90;;;;;;1888524;75;20203;-70
2021/08/22 10:15:10;;;;;;;;;;;17.70;99.90;;;;;;1888911;76;20199;-69
2021/08/22 10:17:37;;;;;;;;;;;17.60;99.90;;;;;;1888734;76;20191;-70
2021/08/22 10:20:04;;;;;;;;;;;17.70;99.90;;;;;;1888711;76;20195;-69
2021/08/22 10:22:32;;;;;;;;;;;17.70;99.90;;;;;;1888380;75;20481;-69
2021/08/22 10:25:05;;;;;;;;;;;17.70;99.90;;;;;;1888784;76;20195;-69
2021/08/22 10:27:33;;;;;;;;;;;17.70;99.90;;;;;;1888213;76;20133;-69
2021/08/22 10:30:02;;;;;;;;;;;17.70;99.90;;;;;;1888919;76;20206;-69
2021/08/22 10:32:29;;;;;;;;;;;17.80;99.90;;;;;;1888711;75;20191;-69
2021/08/22 10:35:13;;;;;;;;;;;17.70;99.90;;;;;;1889024;76;20191;-69
2021/08/22 10:37:40;;;;;;;;;;;17.80;99.90;;;;;;1888763;76;20176;-69
2021/08/22 10:40:30;;;;;;;;;;;17.70;99.90;;;;;;1888885;76;20207;-69
2021/08/22 10:43:09;;;;;;;;;;;17.70;99.90;;;;;;1888851;75;20152;-69
2021/08/22 10:45:43;;;;;;;;;;;17.70;99.90;;;;;;1889046;76;20199;-70
2021/08/22 10:48:11;;;;;;;;;;;17.70;99.90;;;;;;1889037;76;20187;-70
2021/08/22 10:50:56;;;;;;;;;;;17.70;99.90;;;;;;1888677;75;20203;-70
2021/08/22 10:53:33;;;;;;;;;;;17.70;99.90;;;;;;1888968;76;20137;-70
2021/08/22 10:56:00;;;;;;;;;;;17.70;99.90;;;;;;1888919;76;20172;-69
2021/08/22 10:58:45;;;;;;;;;;;17.60;99.90;;;;;;1889074;76;20177;-70
2021/08/22 11:01:18;;;;;;;;;;;17.70;99.90;;;;;;1888879;75;20148;-69
2021/08/22 11:03:46;;;;;;;;;;;17.60;99.90;;;;;;1888878;76;20191;-69
2021/08/22 11:06:13;;;;;;;;;;;17.70;99.90;;;;;;1885926;76;20174;-70
2021/08/22 11:08:40;;;;;;;;;;;17.70;99.90;;;;;;1888760;76;20835;-69
2021/08/22 11:11:07;;;;;;;;;;;17.70;99.90;;;;;;1888314;75;20193;-70
2021/08/22 11:13:41;;;;;;;;;;;17.70;99.90;;;;;;1888760;76;20446;-70
2021/08/22 11:16:07;;;;;;;;;;;17.70;99.90;;;;;;1886549;76;20203;-68
2021/08/22 11:18:34;;;;;;;;;;;17.60;99.90;;;;;;1888836;76;20164;-70
2021/08/22 11:21:01;;;;;;;;;;;17.60;99.90;;;;;;1888609;75;20191;-69
2021/08/22 11:23:29;;;;;;;;;;;17.60;99.90;;;;;;1888893;76;20809;-69
2021/08/22 11:26:06;;;;;;;;;;;17.60;99.90;;;;;;1888716;76;20184;-70
2021/08/22 11:28:33;;;;;;;;;;;17.60;99.90;;;;;;1888764;76;20214;-69
2021/08/22 11:31:00;;;;;;;;;;;17.70;99.90;;;;;;1888470;75;20191;-70
2021/08/22 11:33:30;;;;;;;;;;;17.70;99.90;;;;;;1888961;76;20199;-69
2021/08/22 11:35:57;;;;;;;;;;;17.70;99.90;;;;;;1888996;76;20202;-70
2021/08/22 11:38:24;;;;;;;;;;;17.70;99.90;;;;;;1888962;76;20148;-70
2021/08/22 11:40:52;;;;;;;;;;;17.70;99.90;;;;;;1888674;75;20194;-69
2021/08/22 11:43:19;;;;;;;;;;;17.80;99.90;;;;;;1887273;76;20287;-69
2021/08/22 11:45:46;;;;;;;;;;;17.80;99.90;;;;;;1888914;76;20523;-70
2021/08/22 11:48:17;;;;;;;;;;;17.90;99.90;;;;;;1889034;76;20156;-70
2021/08/22 11:50:43;;;;;;;;;;;17.90;99.90;;;;;;1888617;75;20241;-70
2021/08/22 11:53:11;;;;;;;;;;;18.00;99.90;;;;;;1888917;76;20195;-70
2021/08/22 11:55:41;;;;;;;;;;;18.00;99.90;;;;;;1888824;76;20207;-70
2021/08/22 11:58:12;;;;;;;;;;;18.00;99.90;;;;;;1888880;76;20567;-70
2021/08/22 12:00:40;;;;;;;;;;;18.10;99.90;;;;;;1888549;75;20144;-69
2021/08/22 12:03:08;;;;;;;;;;;18.00;99.90;;;;;;1889052;76;20189;-69
2021/08/22 12:05:35;;;;;;;;;;;18.10;99.90;;;;;;1888542;76;20418;-70
2021/08/22 12:08:03;;;;;;;;;;;18.10;99.90;;;;;;1888995;76;20187;-69
2021/08/22 12:10:31;;;;;;;;;;;18.10;99.90;;;;;;1888301;76;20156;-69
2021/08/22 12:12:59;;;;;;;;;;;18.00;99.90;;;;;;1888896;75;20199;-69
2021/08/22 12:15:33;;;;;;;;;;;18.00;99.90;;;;;;1888865;76;20160;-69
2021/08/22 12:18:13;;;;;;;;;;;18.00;99.90;;;;;;1888924;76;20148;-69
2021/08/22 12:20:40;;;;;;;;;;;18.10;99.90;;;;;;1888566;75;20199;-69
2021/08/22 12:23:08;;;;;;;;;;;18.10;99.90;;;;;;1888843;76;20180;-69
2021/08/22 12:25:36;;;;;;;;;;;18.10;99.90;;;;;;1888770;76;20480;-70
2021/08/22 12:28:24;;;;;;;;;;;18.10;99.90;;;;;;1889085;76;20261;-69
2021/08/22 12:30:49;;;;;;;;;;;18.10;99.90;;;;;;1886887;75;20161;-71
2021/08/22 12:33:29;;;;;;;;;;;18.10;99.90;;;;;;1888773;76;20191;-70
2021/08/22 12:36:14;;;;;;;;;;;18.00;99.90;;;;;;1888658;76;20229;-69
2021/08/22 12:38:42;;;;;;;;;;;18.10;99.90;;;;;;1888668;76;20230;-69
2021/08/22 12:41:23;;;;;;;;;;;18.10;99.90;;;;;;1888459;75;20233;-69
2021/08/22 12:43:50;;;;;;;;;;;18.10;99.90;;;;;;1888697;76;20191;-69
2021/08/22 12:46:17;;;;;;;;;;;18.10;99.90;;;;;;1889012;76;20227;-69
2021/08/22 12:48:44;;;;;;;;;;;18.10;99.90;;;;;;1888836;76;20514;-69
2021/08/22 12:51:11;;;;;;;;;;;18.10;99.90;;;;;;1888537;75;20868;-68
2021/08/22 12:53:38;;;;;;;;;;;18.10;99.90;;;;;;1888715;76;20509;-69
2021/08/22 12:56:05;;;;;;;;;;;18.10;99.90;;;;;;1888797;76;20184;-69
2021/08/22 12:58:32;;;;;;;;;;;18.20;99.90;;;;;;1888949;76;20192;-69
2021/08/22 13:00:59;;;;;;;;;;;18.20;99.90;;;;;;1888317;75;20152;-69
2021/08/22 13:03:26;;;;;;;;;;;18.20;99.90;;;;;;1888713;76;20514;-69
2021/08/22 13:05:53;;;;;;;;;;;18.30;99.90;;;;;;1888664;76;20148;-70
2021/08/22 13:08:20;;;;;;;;;;;18.30;99.90;;;;;;1889029;76;20203;-69
2021/08/22 13:10:46;;;;;;;;;;;18.40;99.90;;;;;;1888483;75;20192;-70
2021/08/22 13:13:13;;;;;;;;;;;18.40;99.90;;;;;;1888700;76;20148;-70
2021/08/22 13:15:40;;;;;;;;;;;18.50;99.90;;;;;;1888870;76;20191;-69
2021/08/22 13:18:07;;;;;;;;;;;18.50;99.90;;;;;;1888984;76;20133;-70
2021/08/22 13:20:36;;;;;;;;;;;18.60;99.90;;;;;;1888653;76;20140;-68
2021/08/22 13:23:03;;;;;;;;;;;18.70;99.90;;;;;;1888913;76;20148;-69
2021/08/22 13:25:31;;;;;;;;;;;18.80;99.90;;;;;;1888870;76;20226;-68
2021/08/22 13:27:58;;;;;;;;;;;18.90;99.90;;;;;;1888794;76;20207;-69
2021/08/22 13:30:25;;;;;;;;;;;19.00;99.90;;;;;;1888974;76;20184;-69
2021/08/22 13:32:54;;;;;;;;;;;19.10;99.90;;;;;;1888918;75;20176;-69
2021/08/22 13:35:21;;;;;;;;;;;19.20;99.90;;;;;;1888968;76;20461;-71
2021/08/22 13:37:48;;;;;;;;;;;19.50;99.90;;;;;;1889010;76;20143;-70
2021/08/22 13:40:15;;;;;;;;;;;19.70;99.90;;;;;;1888977;76;20183;-70
2021/08/22 13:42:42;;;;;;;;;;;19.80;99.90;;;;;;1888808;75;20183;-72
2021/08/22 13:45:09;;;;;;;;;;;19.90;99.90;;;;;;1888914;76;20237;-70
2021/08/22 13:47:36;;;;;;;;;;;20.00;99.90;;;;;;1888868;76;20155;-71
2021/08/22 13:50:03;;;;;;;;;;;20.10;99.90;;;;;;1888861;76;20218;-71
2021/08/22 13:52:29;;;;;;;;;;;20.10;99.90;;;;;;1888508;75;20199;-70
2021/08/22 13:54:56;;;;;;;;;;;20.00;99.90;;;;;;1888850;76;20503;-70
2021/08/22 13:57:23;;;;;;;;;;;19.90;99.90;;;;;;1888854;76;20195;-70
2021/08/22 13:59:50;;;;;;;;;;;19.70;99.90;;;;;;1888848;76;20195;-70
2021/08/22 14:02:17;;;;;;;;;;;19.70;99.90;;;;;;1888526;75;20203;-71
2021/08/22 14:04:43;;;;;;;;;;;19.70;99.90;;;;;;1888888;76;20219;-70
2021/08/22 14:07:10;;;;;;;;;;;19.70;99.90;;;;;;1888912;76;20184;-70
2021/08/22 14:09:37;;;;;;;;;;;19.70;99.90;;;;;;1888946;76;20176;-69
2021/08/22 14:12:05;;;;;;;;;;;19.60;99.90;;;;;;1888461;75;20192;-71
2021/08/22 14:14:32;;;;;;;;;;;19.60;99.90;;;;;;1888754;76;20211;-71
2021/08/22 14:16:58;;;;;;;;;;;19.70;99.90;;;;;;1888796;75;20222;-70
2021/08/22 14:19:25;;;;;;;;;;;19.60;99.90;;;;;;1888786;76;20163;-70
2021/08/22 14:21:52;;;;;;;;;;;19.60;99.90;;;;;;1888473;75;20195;-70
2021/08/22 14:24:19;;;;;;;;;;;19.50;99.90;;;;;;1888978;76;20429;-70